createdAt,value
2019-03-25T00:00:09.891Z,50.10
2019-03-25T00:02:38.994Z,55.53
2019-03-25T00:05:08.360Z,51.80
2019-03-25T00:07:37.410Z,50.53
2019-03-25T00:10:06.803Z,46.60
2019-03-25T00:12:36.021Z,48.63
2019-03-25T00:15:05.445Z,49.73
2019-03-25T00:17:34.646Z,52.10
2019-03-25T00:20:04.051Z,52.83
2019-03-25T00:22:33.518Z,50.50
2019-03-25T00:25:03.331Z,55.93
2019-03-25T00:27:32.769Z,50.77
2019-03-25T00:30:02.372Z,53.30
2019-03-25T00:32:31.717Z,51.83
2019-03-25T00:35:01.437Z,53.60
2019-03-25T00:37:30.257Z,54.10
2019-03-25T00:39:59.574Z,57.40
2019-03-25T00:42:29.143Z,50.70
2019-03-25T00:44:58.526Z,52.03
2019-03-25T00:47:27.626Z,55.40
2019-03-25T00:49:56.978Z,53.70
2019-03-25T00:52:26.020Z,53.47
2019-03-25T00:54:55.074Z,57.80
2019-03-25T00:57:24.102Z,56.60
2019-03-25T00:59:53.491Z,55.20
2019-03-25T01:02:23.208Z,50.87
2019-03-25T01:04:52.833Z,55.10
2019-03-25T01:07:21.893Z,56.43
2019-03-25T01:09:51.178Z,59.37
2019-03-25T01:12:20.522Z,53.27
2019-03-25T01:14:49.467Z,60.60
2019-03-25T01:17:19.050Z,60.50
2019-03-25T01:19:48.331Z,52.33
2019-03-25T01:22:17.369Z,58.07
2019-03-25T01:24:46.634Z,62.43
2019-03-25T01:27:15.962Z,56.57
2019-03-25T01:29:45.025Z,55.00
2019-03-25T01:32:14.324Z,55.87
2019-03-25T01:34:43.258Z,57.30
2019-03-25T01:37:12.585Z,59.73
2019-03-25T01:39:41.633Z,53.47
2019-03-25T01:42:11.565Z,60.30
2019-03-25T01:44:41.146Z,55.50
2019-03-25T01:47:10.750Z,55.60
2019-03-25T01:49:39.781Z,55.87
2019-03-25T01:52:08.883Z,57.93
2019-03-25T01:54:38.237Z,59.77
2019-03-25T01:57:07.659Z,56.93
2019-03-25T01:59:36.731Z,60.50
2019-03-25T02:02:05.738Z,56.13
2019-03-25T02:04:34.781Z,61.40
2019-03-25T02:07:03.815Z,60.87
2019-03-25T02:09:32.835Z,52.83
2019-03-25T02:12:01.883Z,58.10
2019-03-25T02:14:31.454Z,54.97
2019-03-25T02:17:00.502Z,56.13
2019-03-25T02:19:29.546Z,52.87
2019-03-25T02:21:58.614Z,59.80
2019-03-25T02:24:27.648Z,54.63
2019-03-25T02:26:56.670Z,63.70
2019-03-25T02:29:25.949Z,61.37
2019-03-25T02:31:54.910Z,53.40
2019-03-25T02:34:24.478Z,53.77
2019-03-25T02:36:56.093Z,57.67
2019-03-25T02:39:25.530Z,56.80
2019-03-25T02:41:54.746Z,64.47
2019-03-25T02:44:23.785Z,61.87
2019-03-25T02:46:52.876Z,63.97
2019-03-25T02:49:22.206Z,54.83
2019-03-25T02:51:51.267Z,54.40
2019-03-25T02:54:20.659Z,57.03
2019-03-25T02:56:49.779Z,56.40
2019-03-25T02:59:19.299Z,55.97
2019-03-25T03:01:48.918Z,57.10
2019-03-25T03:04:18.106Z,61.30
2019-03-25T03:06:47.486Z,60.17
2019-03-25T03:09:16.501Z,65.03
2019-03-25T03:11:45.758Z,55.10
2019-03-25T03:14:15.624Z,57.07
2019-03-25T03:16:45.072Z,58.43
2019-03-25T03:19:14.495Z,53.90
2019-03-25T03:21:43.567Z,57.67
2019-03-25T03:24:12.947Z,52.60
2019-03-25T03:26:42.010Z,59.00
2019-03-25T03:29:11.062Z,58.57
2019-03-25T03:31:40.157Z,61.87
2019-03-25T03:34:09.283Z,56.90
2019-03-25T03:36:38.307Z,53.53
2019-03-25T03:39:08.096Z,58.53
2019-03-25T03:41:37.427Z,64.17
2019-03-25T03:44:06.757Z,63.77
2019-03-25T03:46:36.175Z,57.00
2019-03-25T03:49:05.518Z,57.70
2019-03-25T03:51:34.468Z,55.87
2019-03-25T03:54:04.044Z,55.63
2019-03-25T03:56:33.664Z,57.63
2019-03-25T03:59:05.250Z,59.27
2019-03-25T04:01:34.872Z,53.87
2019-03-25T04:04:04.493Z,55.80
2019-03-25T04:06:34.108Z,59.63
2019-03-25T04:09:04.566Z,51.37
2019-03-25T04:11:33.571Z,52.67
2019-03-25T04:14:03.236Z,50.97
2019-03-25T04:16:32.413Z,58.67
2019-03-25T04:19:01.627Z,49.40
2019-03-25T04:21:30.688Z,50.13
2019-03-25T04:23:59.600Z,46.60
2019-03-25T04:26:29.665Z,49.53
2019-03-25T04:28:58.971Z,47.60
2019-03-25T04:31:28.344Z,47.17
2019-03-25T04:33:57.430Z,52.93
2019-03-25T04:36:29.545Z,55.77
2019-03-25T04:38:58.616Z,51.90
2019-03-25T04:41:27.666Z,53.50
2019-03-25T04:43:57.222Z,49.07
2019-03-25T04:46:26.846Z,47.27
2019-03-25T04:48:56.085Z,45.23
2019-03-25T04:51:26.716Z,47.10
2019-03-25T04:53:56.292Z,43.37
2019-03-25T04:56:25.385Z,39.23
2019-03-25T04:58:54.746Z,40.97
2019-03-25T05:01:24.181Z,45.03
2019-03-25T05:03:53.247Z,42.70
2019-03-25T05:06:21.851Z,42.13
2019-03-25T05:08:50.499Z,47.43
2019-03-25T05:11:30.078Z,41.13
2019-03-25T05:13:50.122Z,41.03
2019-03-25T05:16:19.164Z,39.53
2019-03-25T05:18:48.214Z,36.67
2019-03-25T05:21:17.206Z,38.43
2019-03-25T05:23:46.256Z,39.63
2019-03-25T05:26:15.757Z,39.73
2019-03-25T05:28:45.078Z,37.73
2019-03-25T05:31:14.686Z,34.63
2019-03-25T05:33:44.115Z,38.03
2019-03-25T05:36:13.552Z,30.73
2019-03-25T05:38:42.607Z,35.43
2019-03-25T05:41:11.695Z,34.50
2019-03-25T05:43:40.509Z,31.43
2019-03-25T05:46:09.135Z,31.93
2019-03-25T05:48:38.126Z,29.53
2019-03-25T05:51:07.314Z,32.13
2019-03-25T05:53:36.094Z,27.60
2019-03-25T05:56:04.856Z,30.63
2019-03-25T05:58:33.483Z,26.80
2019-03-25T06:01:02.393Z,25.73
2019-03-25T06:03:31.034Z,25.57
2019-03-25T06:05:59.843Z,26.27
2019-03-25T06:08:28.444Z,23.90
2019-03-25T06:10:57.403Z,20.27
2019-03-25T06:13:26.822Z,23.33
2019-03-25T06:15:56.041Z,20.90
2019-03-25T06:18:24.670Z,22.40
2019-03-25T06:20:53.379Z,25.43
2019-03-25T06:23:21.986Z,22.87
2019-03-25T06:25:50.571Z,23.47
2019-03-25T06:28:19.227Z,23.20
2019-03-25T06:30:47.841Z,20.13
2019-03-25T06:33:16.472Z,23.53
2019-03-25T06:35:45.159Z,20.73
2019-03-25T06:38:13.784Z,21.40
2019-03-25T06:40:42.494Z,20.23
2019-03-25T06:43:11.112Z,17.50
2019-03-25T06:45:40.091Z,24.73
2019-03-25T06:48:09.064Z,20.87
2019-03-25T06:50:40.819Z,20.30
2019-03-25T06:53:09.730Z,21.97
2019-03-25T06:55:38.343Z,17.80
2019-03-25T06:58:07.190Z,21.13
2019-03-25T07:00:36.745Z,18.27
2019-03-25T07:03:05.693Z,20.20
2019-03-25T07:05:34.514Z,22.37
2019-03-25T07:08:03.742Z,16.70
2019-03-25T07:10:33.624Z,19.63
2019-03-25T07:13:02.714Z,19.97
2019-03-25T07:15:31.496Z,17.87
2019-03-25T07:18:06.535Z,20.60
2019-03-25T07:20:35.164Z,17.13
2019-03-25T07:23:04.370Z,18.47
2019-03-25T07:25:33.346Z,19.93
2019-03-25T07:28:01.951Z,18.30
2019-03-25T07:30:31.064Z,18.00
2019-03-25T07:32:59.922Z,18.03
2019-03-25T07:35:28.958Z,15.83
2019-03-25T07:37:57.955Z,19.17
2019-03-25T07:40:27.014Z,19.87
2019-03-25T07:42:56.144Z,19.93
2019-03-25T07:45:24.859Z,18.33
2019-03-25T07:47:53.470Z,20.70
2019-03-25T07:50:22.423Z,20.13
2019-03-25T07:52:51.390Z,16.13
2019-03-25T07:55:20.812Z,23.80
2019-03-25T07:57:49.852Z,15.80
2019-03-25T08:00:19.132Z,18.13
2019-03-25T08:02:48.108Z,24.37
2019-03-25T08:05:17.131Z,20.40
2019-03-25T08:07:46.544Z,21.83
2019-03-25T08:10:17.700Z,16.93
2019-03-25T08:12:46.788Z,20.47
2019-03-25T08:15:16.559Z,15.33
2019-03-25T08:17:45.750Z,14.30
2019-03-25T08:20:15.350Z,16.83
2019-03-25T08:22:45.018Z,17.17
2019-03-25T08:25:14.402Z,13.70
2019-03-25T08:27:43.532Z,15.83
2019-03-25T08:30:12.664Z,17.13
2019-03-25T08:32:41.287Z,14.27
2019-03-25T08:35:10.520Z,16.73
2019-03-25T08:37:39.112Z,15.97
2019-03-25T08:40:09.578Z,16.43
2019-03-25T08:42:38.208Z,18.77
2019-03-25T08:45:07.626Z,30.27
2019-03-25T08:47:36.230Z,18.03
2019-03-25T08:50:05.171Z,22.47
2019-03-25T08:52:34.067Z,17.30
2019-03-25T08:55:03.578Z,17.30
2019-03-25T08:57:32.811Z,24.47
2019-03-25T09:00:01.855Z,15.50
2019-03-25T09:02:31.164Z,24.00
2019-03-25T09:05:00.501Z,20.57
2019-03-25T09:07:29.112Z,16.80
2019-03-25T09:09:58.152Z,17.83
2019-03-25T09:12:26.916Z,16.77
2019-03-25T09:14:55.724Z,16.57
2019-03-25T09:17:24.690Z,20.47
2019-03-25T09:19:53.698Z,21.83
2019-03-25T09:22:22.775Z,13.37
2019-03-25T09:24:52.139Z,16.73
2019-03-25T09:27:21.565Z,12.07
2019-03-25T09:29:50.788Z,10.80
2019-03-25T09:32:19.847Z,17.10
2019-03-25T09:34:48.881Z,18.40
2019-03-25T09:37:18.457Z,15.33
2019-03-25T09:39:47.508Z,15.13
2019-03-25T09:42:16.718Z,13.27
2019-03-25T09:44:46.146Z,15.20
2019-03-25T09:47:15.186Z,11.50
2019-03-25T09:49:44.222Z,12.43
2019-03-25T09:52:13.271Z,14.17
2019-03-25T09:54:42.405Z,14.33
2019-03-25T09:57:11.307Z,15.20
2019-03-25T09:59:40.718Z,16.60
2019-03-25T10:02:10.329Z,12.63
2019-03-25T10:04:39.381Z,18.33
2019-03-25T10:07:09.579Z,21.97
2019-03-25T10:09:38.630Z,18.63
2019-03-25T10:12:08.219Z,11.73
2019-03-25T10:14:37.646Z,16.47
2019-03-25T10:17:06.711Z,14.57
2019-03-25T10:19:35.742Z,15.63
2019-03-25T10:22:05.319Z,12.23
2019-03-25T10:24:34.375Z,10.83
2019-03-25T10:27:03.778Z,12.37
2019-03-25T10:29:33.123Z,12.23
2019-03-25T10:32:02.191Z,11.57
2019-03-25T10:34:31.367Z,10.70
2019-03-25T10:37:00.299Z,10.70
2019-03-25T10:39:29.614Z,8.97
2019-03-25T10:41:58.554Z,9.43
2019-03-25T10:44:27.592Z,11.17
2019-03-25T10:46:57.218Z,11.63
2019-03-25T10:49:26.518Z,7.37
2019-03-25T10:51:55.444Z,9.63
2019-03-25T10:54:24.572Z,6.10
2019-03-25T10:56:53.909Z,9.10
2019-03-25T10:59:22.959Z,11.23
2019-03-25T11:01:51.993Z,7.50
2019-03-25T11:04:21.074Z,11.07
2019-03-25T11:06:50.226Z,9.07
2019-03-25T11:09:19.365Z,9.50
2019-03-25T11:11:48.674Z,11.50
2019-03-25T11:14:18.091Z,11.33
2019-03-25T11:16:47.423Z,10.03
2019-03-25T11:19:16.646Z,8.33
2019-03-25T11:21:45.616Z,10.23
2019-03-25T11:24:15.257Z,7.30
2019-03-25T11:26:44.522Z,5.20
2019-03-25T11:29:13.470Z,11.27
2019-03-25T11:31:42.874Z,9.17
2019-03-25T11:34:11.923Z,9.53
2019-03-25T11:36:40.969Z,7.97
2019-03-25T11:39:10.259Z,10.47
2019-03-25T11:41:39.210Z,8.40
2019-03-25T11:44:08.516Z,6.60
2019-03-25T11:46:37.569Z,5.83
2019-03-25T11:49:06.766Z,8.47
2019-03-25T11:51:35.727Z,9.77
2019-03-25T11:54:05.316Z,9.70
2019-03-25T11:56:34.647Z,6.83
2019-03-25T11:59:04.164Z,9.83
2019-03-25T12:01:33.595Z,11.93
2019-03-25T12:04:02.635Z,10.53
2019-03-25T12:06:31.698Z,16.13
2019-03-25T12:09:01.075Z,9.57
2019-03-25T12:11:30.686Z,11.60
2019-03-25T12:13:59.768Z,7.87
2019-03-25T12:16:28.763Z,20.23
2019-03-25T12:18:58.369Z,17.57
2019-03-25T12:21:27.798Z,11.37
2019-03-25T12:23:57.218Z,12.07
2019-03-25T12:26:26.143Z,9.27
2019-03-25T12:28:55.096Z,17.40
2019-03-25T12:31:24.104Z,10.03
2019-03-25T12:33:53.166Z,11.27
2019-03-25T12:36:22.206Z,15.37
2019-03-25T12:38:51.359Z,12.00
2019-03-25T12:41:19.962Z,16.30
2019-03-25T12:43:49.262Z,11.13
2019-03-25T12:46:18.735Z,12.57
2019-03-25T12:48:47.634Z,12.47
2019-03-25T12:51:16.253Z,9.07
2019-03-25T12:53:44.954Z,15.40
2019-03-25T12:56:13.674Z,6.70
2019-03-25T12:58:42.284Z,9.77
2019-03-25T13:01:11.085Z,14.47
2019-03-25T13:03:40.778Z,10.63
2019-03-25T13:06:09.932Z,8.63
2019-03-25T13:08:39.056Z,14.43
2019-03-25T13:11:08.781Z,16.50
2019-03-25T13:13:38.396Z,11.30
2019-03-25T13:16:07.462Z,9.10
2019-03-25T13:18:36.498Z,10.63
2019-03-25T13:21:05.301Z,10.37
2019-03-25T13:23:34.519Z,22.93
2019-03-25T13:26:03.618Z,10.37
2019-03-25T13:28:32.410Z,16.07
2019-03-25T13:31:01.028Z,9.37
2019-03-25T13:33:29.642Z,11.27
2019-03-25T13:35:58.877Z,15.90
2019-03-25T13:38:27.940Z,9.83
2019-03-25T13:40:56.714Z,18.83
2019-03-25T13:43:25.326Z,16.07
2019-03-25T13:46:04.821Z,16.93
2019-03-25T13:48:24.294Z,15.70
2019-03-25T13:50:52.894Z,16.73
2019-03-25T13:53:21.511Z,18.73
2019-03-25T13:55:50.315Z,13.30
2019-03-25T13:58:19.160Z,8.57
2019-03-25T14:00:48.223Z,10.70
2019-03-25T14:03:16.826Z,20.37
2019-03-25T14:05:45.466Z,17.03
2019-03-25T14:08:14.057Z,11.73
2019-03-25T14:10:42.654Z,11.57
2019-03-25T14:13:11.366Z,9.83
2019-03-25T14:15:39.961Z,15.13
2019-03-25T14:18:08.555Z,12.33
2019-03-25T14:20:37.175Z,8.43
2019-03-25T14:23:05.891Z,12.10
2019-03-25T14:25:34.489Z,11.60
2019-03-25T14:28:03.391Z,10.27
2019-03-25T14:30:32.450Z,13.70
2019-03-25T14:33:01.164Z,11.57
2019-03-25T14:35:29.890Z,12.53
2019-03-25T14:37:59.221Z,6.83
2019-03-25T14:40:28.170Z,10.40
2019-03-25T14:42:57.675Z,13.50
2019-03-25T14:45:26.992Z,8.77
2019-03-25T14:47:55.887Z,11.60
2019-03-25T14:50:24.530Z,8.50
2019-03-25T14:52:53.142Z,13.30
2019-03-25T14:55:21.748Z,10.53
2019-03-25T14:57:50.370Z,9.30
2019-03-25T15:00:25.104Z,10.77
2019-03-25T15:02:49.466Z,9.23
2019-03-25T15:05:18.171Z,6.90
2019-03-25T15:07:46.795Z,8.00
2019-03-25T15:10:15.542Z,4.60
2019-03-25T15:12:44.600Z,5.53
2019-03-25T15:15:14.363Z,7.80
2019-03-25T15:17:43.086Z,6.20
2019-03-25T15:20:12.206Z,6.97
2019-03-25T15:22:40.903Z,5.07
2019-03-25T15:25:10.001Z,5.50
2019-03-25T15:27:38.608Z,8.47
2019-03-25T15:30:09.506Z,5.40
2019-03-25T15:32:38.122Z,8.03
2019-03-25T15:35:07.847Z,9.17
2019-03-25T15:37:36.450Z,5.47
2019-03-25T15:40:05.864Z,5.97
2019-03-25T15:42:34.538Z,8.23
2019-03-25T15:45:03.113Z,9.20
2019-03-25T15:47:31.831Z,3.50
2019-03-25T15:50:00.501Z,6.23
2019-03-25T15:52:29.121Z,6.07
2019-03-25T15:54:57.725Z,4.57
2019-03-25T15:57:26.306Z,5.77
2019-03-25T15:59:55.290Z,5.10
2019-03-25T16:02:23.876Z,5.70
2019-03-25T16:04:52.479Z,4.77
2019-03-25T16:07:21.237Z,3.13
2019-03-25T16:09:49.815Z,4.07
2019-03-25T16:12:18.426Z,4.03
2019-03-25T16:14:47.140Z,5.03
2019-03-25T16:17:15.854Z,4.73
2019-03-25T16:19:44.598Z,6.00
2019-03-25T16:22:13.211Z,3.73
2019-03-25T16:24:41.791Z,6.63
2019-03-25T16:27:10.531Z,2.57
2019-03-25T16:29:39.242Z,3.40
2019-03-25T16:32:07.860Z,3.13
2019-03-25T16:34:36.464Z,4.50
2019-03-25T16:37:05.190Z,3.53
2019-03-25T16:39:33.788Z,11.33
2019-03-25T16:42:02.410Z,4.27
2019-03-25T16:44:32.224Z,5.80
2019-03-25T16:47:00.874Z,5.90
2019-03-25T16:49:29.710Z,3.57
2019-03-25T16:51:58.378Z,2.73
2019-03-25T16:54:27.011Z,3.03
2019-03-25T16:56:55.631Z,5.13
2019-03-25T16:59:24.234Z,3.33
2019-03-25T17:01:52.947Z,4.83
2019-03-25T17:04:21.554Z,3.73
2019-03-25T17:06:50.145Z,3.83
2019-03-25T17:09:18.750Z,6.13
2019-03-25T17:11:47.379Z,5.10
2019-03-25T17:14:16.066Z,4.83
2019-03-25T17:16:44.750Z,4.57
2019-03-25T17:19:13.387Z,5.00
2019-03-25T17:21:41.987Z,2.53
2019-03-25T17:24:10.619Z,3.20
2019-03-25T17:26:42.547Z,3.53
2019-03-25T17:29:09.683Z,4.57
2019-03-25T17:31:38.283Z,4.43
2019-03-25T17:34:06.931Z,5.60
2019-03-25T17:36:35.596Z,3.57
2019-03-25T17:39:06.090Z,2.50
2019-03-25T17:41:34.691Z,7.60
2019-03-25T17:44:03.760Z,3.70
2019-03-25T17:46:32.490Z,5.43
2019-03-25T17:49:01.094Z,5.27
2019-03-25T17:51:29.741Z,3.30
2019-03-25T17:53:58.367Z,6.07
2019-03-25T17:56:26.951Z,7.87
2019-03-25T17:58:55.559Z,3.50
2019-03-25T18:01:35.895Z,6.43
2019-03-25T18:04:04.907Z,7.77
2019-03-25T18:06:33.646Z,3.50
2019-03-25T18:09:02.338Z,7.87
2019-03-25T18:11:31.486Z,3.87
2019-03-25T18:14:00.640Z,5.30
2019-03-25T18:16:29.259Z,4.27
2019-03-25T18:18:57.851Z,4.67
2019-03-25T18:21:26.494Z,5.20
2019-03-25T18:23:55.254Z,4.53
2019-03-25T18:26:24.344Z,5.47
2019-03-25T18:28:53.415Z,6.27
2019-03-25T18:31:22.806Z,5.53
2019-03-25T18:33:51.652Z,5.03
2019-03-25T18:36:20.232Z,3.83
2019-03-25T18:38:48.876Z,6.00
2019-03-25T18:41:17.606Z,8.20
2019-03-25T18:43:46.671Z,5.97
2019-03-25T18:46:15.992Z,4.07
2019-03-25T18:48:45.062Z,5.47
2019-03-25T18:51:14.119Z,3.40
2019-03-25T18:53:42.888Z,4.50
2019-03-25T18:56:11.627Z,6.93
2019-03-25T18:58:40.538Z,8.43
2019-03-25T19:01:09.131Z,7.17
2019-03-25T19:03:37.906Z,4.60
2019-03-25T19:06:06.785Z,11.73
2019-03-25T19:08:38.237Z,4.63
2019-03-25T19:11:06.104Z,4.13
2019-03-25T19:13:35.320Z,4.40
2019-03-25T19:16:04.687Z,5.10
2019-03-25T19:18:33.294Z,3.73
2019-03-25T19:21:01.888Z,5.27
2019-03-25T19:23:30.453Z,4.47
2019-03-25T19:25:59.059Z,4.87
2019-03-25T19:28:27.805Z,2.77
2019-03-25T19:30:56.439Z,5.07
2019-03-25T19:33:25.005Z,3.20
2019-03-25T19:35:53.643Z,5.60
2019-03-25T19:38:22.197Z,6.03
2019-03-25T19:40:50.798Z,6.13
2019-03-25T19:43:19.437Z,4.77
2019-03-25T19:45:48.418Z,4.00
2019-03-25T19:48:17.034Z,5.10
2019-03-25T19:50:45.671Z,9.60
2019-03-25T19:53:18.922Z,5.23
2019-03-25T19:55:44.651Z,5.20
2019-03-25T19:58:13.218Z,9.90
2019-03-25T20:00:42.360Z,5.43
2019-03-25T20:03:11.392Z,3.47
2019-03-25T20:05:40.485Z,6.57
2019-03-25T20:08:09.746Z,4.50
2019-03-25T20:10:38.695Z,4.80
2019-03-25T20:13:08.097Z,4.70
2019-03-25T20:15:45.889Z,7.23
2019-03-25T20:18:07.134Z,6.57
2019-03-25T20:20:35.838Z,7.33
2019-03-25T20:23:05.175Z,5.70
2019-03-25T20:25:33.863Z,3.87
2019-03-25T20:28:02.551Z,6.03
2019-03-25T20:30:31.254Z,3.43
2019-03-25T20:33:00.019Z,5.03
2019-03-25T20:35:28.623Z,5.83
2019-03-25T20:37:57.254Z,7.03
2019-03-25T20:40:25.928Z,4.93
2019-03-25T20:42:54.531Z,4.13
2019-03-25T20:45:23.098Z,6.23
2019-03-25T20:47:51.709Z,8.80
2019-03-25T20:50:20.313Z,6.83
2019-03-25T20:52:49.271Z,5.50
2019-03-25T20:55:18.498Z,4.57
2019-03-25T20:57:47.202Z,6.37
2019-03-25T21:00:16.346Z,7.00
2019-03-25T21:02:45.842Z,4.67
2019-03-25T21:05:15.423Z,6.03
2019-03-25T21:07:44.804Z,6.97
2019-03-25T21:10:13.913Z,5.73
2019-03-25T21:12:42.887Z,14.07
2019-03-25T21:15:11.699Z,7.30
2019-03-25T21:17:40.788Z,5.77
2019-03-25T21:20:09.785Z,5.57
2019-03-25T21:22:38.842Z,7.00
2019-03-25T21:25:08.158Z,5.30
2019-03-25T21:27:37.404Z,5.77
2019-03-25T21:30:10.027Z,4.90
2019-03-25T21:32:39.124Z,6.13
2019-03-25T21:35:08.950Z,7.77
2019-03-25T21:37:38.149Z,5.67
2019-03-25T21:40:07.045Z,3.57
2019-03-25T21:42:35.883Z,5.90
2019-03-25T21:45:04.670Z,3.53
2019-03-25T21:47:33.650Z,4.97
2019-03-25T21:50:02.779Z,9.10
2019-03-25T21:52:31.932Z,5.33
2019-03-25T21:55:00.920Z,7.03
2019-03-25T21:57:29.519Z,25.77
2019-03-25T21:59:58.157Z,9.40
2019-03-25T22:02:27.575Z,4.80
2019-03-25T22:04:57.333Z,5.23
2019-03-25T22:07:26.012Z,4.73
2019-03-25T22:09:54.640Z,5.57
2019-03-25T22:12:23.746Z,6.33
2019-03-25T22:14:52.736Z,6.50
2019-03-25T22:17:21.335Z,4.13
2019-03-25T22:19:50.094Z,6.57
2019-03-25T22:22:19.058Z,6.20
2019-03-25T22:24:48.064Z,6.60
2019-03-25T22:27:16.823Z,5.73
2019-03-25T22:29:45.526Z,6.27
2019-03-25T22:32:15.141Z,5.27
2019-03-25T22:34:44.566Z,9.20
2019-03-25T22:37:16.055Z,5.57
2019-03-25T22:39:45.042Z,9.43
2019-03-25T22:42:14.070Z,6.97
2019-03-25T22:44:43.339Z,5.30
2019-03-25T22:47:12.471Z,3.00
2019-03-25T22:49:41.045Z,8.50
2019-03-25T22:52:09.639Z,8.07
2019-03-25T22:54:38.603Z,11.80
2019-03-25T22:57:07.632Z,10.20
2019-03-25T22:59:36.356Z,10.60
2019-03-25T23:02:05.241Z,8.30
2019-03-25T23:04:33.853Z,5.67
2019-03-25T23:07:02.443Z,7.93
2019-03-25T23:09:31.030Z,6.40
2019-03-25T23:12:00.210Z,9.00
2019-03-25T23:14:29.295Z,10.43
2019-03-25T23:16:57.881Z,6.10
2019-03-25T23:19:26.475Z,6.73
2019-03-25T23:21:55.154Z,7.30
2019-03-25T23:24:23.761Z,11.43
2019-03-25T23:26:52.359Z,4.60
2019-03-25T23:29:21.049Z,7.90
2019-03-25T23:31:49.744Z,4.57
2019-03-25T23:34:18.356Z,7.27
2019-03-25T23:36:46.951Z,4.20
2019-03-25T23:39:15.546Z,6.57
2019-03-25T23:41:44.342Z,7.63
2019-03-25T23:44:13.273Z,9.10
2019-03-25T23:46:42.348Z,5.57
2019-03-25T23:49:11.347Z,7.23
2019-03-25T23:51:40.027Z,6.67
2019-03-25T23:54:16.374Z,9.37
2019-03-25T23:56:45.758Z,9.13
2019-03-25T23:59:14.743Z,9.07
